sensor_id;sensor_type;location;lat;lon;timestamp;pressure;altitude;pressure_sealevel;temperature;humidity
55466;BME280;41329;41.594;23.810;2022-09-14T00:00:16;95228.59;;;15.29;55.78
55466;BME280;41329;41.594;23.810;2022-09-14T00:02:41;95222.59;;;15.31;55.02
55466;BME280;41329;41.594;23.810;2022-09-14T00:05:07;95225.44;;;15.24;55.13
55466;BME280;41329;41.594;23.810;2022-09-14T00:07:32;95229.44;;;15.23;54.73
55466;BME280;41329;41.594;23.810;2022-09-14T00:09:57;95234.59;;;15.21;54.85
55466;BME280;41329;41.594;23.810;2022-09-14T00:12:23;95235.00;;;15.19;54.92
55466;BME280;41329;41.594;23.810;2022-09-14T00:14:49;95237.41;;;15.17;54.76
55466;BME280;41329;41.594;23.810;2022-09-14T00:17:14;95240.19;;;15.14;55.12
55466;BME280;41329;41.594;23.810;2022-09-14T00:19:39;95241.78;;;15.11;55.20
55466;BME280;41329;41.594;23.810;2022-09-14T00:22:04;95244.19;;;15.09;55.67
55466;BME280;41329;41.594;23.810;2022-09-14T00:24:30;95244.59;;;15.08;55.86
55466;BME280;41329;41.594;23.810;2022-09-14T00:26:56;95244.59;;;15.04;56.06
55466;BME280;41329;41.594;23.810;2022-09-14T00:29:22;95237.03;;;15.01;55.80
55466;BME280;41329;41.594;23.810;2022-09-14T00:31:48;95244.22;;;14.99;55.24
55466;BME280;41329;41.594;23.810;2022-09-14T00:34:14;95243.03;;;14.96;55.29
55466;BME280;41329;41.594;23.810;2022-09-14T00:36:41;95252.59;;;14.92;55.12
55466;BME280;41329;41.594;23.810;2022-09-14T00:39:06;95250.59;;;14.89;55.92
55466;BME280;41329;41.594;23.810;2022-09-14T00:41:33;95261.38;;;14.83;56.33
55466;BME280;41329;41.594;23.810;2022-09-14T00:44:01;95257.00;;;14.79;56.41
55466;BME280;41329;41.594;23.810;2022-09-14T00:46:28;95257.78;;;14.76;56.06
55466;BME280;41329;41.594;23.810;2022-09-14T00:48:53;95248.63;;;14.72;55.83
55466;BME280;41329;41.594;23.810;2022-09-14T00:51:20;95239.91;;;14.66;56.06
55466;BME280;41329;41.594;23.810;2022-09-14T00:53:46;95241.91;;;14.62;56.18
55466;BME280;41329;41.594;23.810;2022-09-14T00:56:12;95241.09;;;14.58;56.21
55466;BME280;41329;41.594;23.810;2022-09-14T00:58:38;95245.88;;;14.54;56.00
55466;BME280;41329;41.594;23.810;2022-09-14T01:01:03;95242.69;;;14.49;56.53
55466;BME280;41329;41.594;23.810;2022-09-14T01:03:29;95243.88;;;14.44;56.60
55466;BME280;41329;41.594;23.810;2022-09-14T01:08:25;95247.06;;;14.39;56.54
55466;BME280;41329;41.594;23.810;2022-09-14T01:13:38;95243.09;;;14.33;57.21
55466;BME280;41329;41.594;23.810;2022-09-14T01:16:09;95241.50;;;14.22;57.25
55466;BME280;41329;41.594;23.810;2022-09-14T01:18:56;95255.78;;;14.13;57.48
55466;BME280;41329;41.594;23.810;2022-09-14T01:21:25;95257.75;;;14.13;57.58
55466;BME280;41329;41.594;23.810;2022-09-14T01:23:58;95260.94;;;14.11;57.52
55466;BME280;41329;41.594;23.810;2022-09-14T01:26:45;95271.66;;;14.13;57.55
55466;BME280;41329;41.594;23.810;2022-09-14T01:29:15;95269.28;;;14.08;56.90
55466;BME280;41329;41.594;23.810;2022-09-14T01:31:56;95267.69;;;14.03;57.00
55466;BME280;41329;41.594;23.810;2022-09-14T01:36:49;95259.72;;;13.95;57.32
55466;BME280;41329;41.594;23.810;2022-09-14T01:39:16;95251.78;;;13.90;57.72
55466;BME280;41329;41.594;23.810;2022-09-14T01:41:43;95259.31;;;13.82;58.20
55466;BME280;41329;41.594;23.810;2022-09-14T01:44:33;95262.88;;;13.76;58.40
55466;BME280;41329;41.594;23.810;2022-09-14T01:46:58;95260.06;;;13.72;58.17
55466;BME280;41329;41.594;23.810;2022-09-14T01:52:19;95273.97;;;13.65;58.02
55466;BME280;41329;41.594;23.810;2022-09-14T01:54:46;95268.00;;;13.63;58.42
55466;BME280;41329;41.594;23.810;2022-09-14T01:57:22;95271.91;;;13.45;58.52
55466;BME280;41329;41.594;23.810;2022-09-14T01:59:51;95268.72;;;13.46;58.24
55466;BME280;41329;41.594;23.810;2022-09-14T02:05:06;95277.84;;;13.43;58.39
55466;BME280;41329;41.594;23.810;2022-09-14T02:07:33;95268.69;;;13.39;57.96
55466;BME280;41329;41.594;23.810;2022-09-14T02:09:58;95273.03;;;13.33;57.84
55466;BME280;41329;41.594;23.810;2022-09-14T02:12:24;95270.66;;;13.28;58.24
55466;BME280;41329;41.594;23.810;2022-09-14T02:14:50;95270.59;;;13.25;58.64
55466;BME280;41329;41.594;23.810;2022-09-14T02:17:16;95275.78;;;13.26;59.27
55466;BME280;41329;41.594;23.810;2022-09-14T02:19:43;95276.97;;;13.25;58.94
55466;BME280;41329;41.594;23.810;2022-09-14T02:22:11;95284.91;;;13.23;59.04
55466;BME280;41329;41.594;23.810;2022-09-14T02:24:37;95281.34;;;13.23;59.20
55466;BME280;41329;41.594;23.810;2022-09-14T02:27:02;95282.53;;;13.22;58.71
55466;BME280;41329;41.594;23.810;2022-09-14T02:29:28;95286.47;;;13.21;59.14
55466;BME280;41329;41.594;23.810;2022-09-14T02:34:28;95287.69;;;13.23;59.32
55466;BME280;41329;41.594;23.810;2022-09-14T02:39:28;95290.88;;;13.25;59.90
55466;BME280;41329;41.594;23.810;2022-09-14T02:42:05;95294.44;;;13.26;59.69
55466;BME280;41329;41.594;23.810;2022-09-14T02:45:16;95285.69;;;13.27;59.27
55466;BME280;41329;41.594;23.810;2022-09-14T02:47:23;95292.44;;;13.26;58.82
55466;BME280;41329;41.594;23.810;2022-09-14T02:52:41;95300.41;;;13.24;59.47
55466;BME280;41329;41.594;23.810;2022-09-14T02:55:09;95295.59;;;13.21;59.13
55466;BME280;41329;41.594;23.810;2022-09-14T03:00:20;95299.97;;;13.19;59.58
55466;BME280;41329;41.594;23.810;2022-09-14T03:02:45;95303.88;;;13.11;59.03
55466;BME280;41329;41.594;23.810;2022-09-14T03:05:11;95300.66;;;12.98;59.10
55466;BME280;41329;41.594;23.810;2022-09-14T03:07:36;95295.44;;;12.97;59.13
55466;BME280;41329;41.594;23.810;2022-09-14T03:10:02;95312.91;;;12.97;59.58
55466;BME280;41329;41.594;23.810;2022-09-14T03:12:27;95316.84;;;12.96;59.03
55466;BME280;41329;41.594;23.810;2022-09-14T03:14:52;95319.63;;;12.93;58.78
55466;BME280;41329;41.594;23.810;2022-09-14T03:17:18;95320.38;;;12.90;58.69
55466;BME280;41329;41.594;23.810;2022-09-14T03:19:43;95315.59;;;12.87;58.79
55466;BME280;41329;41.594;23.810;2022-09-14T03:22:09;95319.56;;;12.82;59.37
55466;BME280;41329;41.594;23.810;2022-09-14T03:24:34;95312.78;;;12.80;59.43
55466;BME280;41329;41.594;23.810;2022-09-14T03:27:00;95321.06;;;12.76;59.75
55466;BME280;41329;41.594;23.810;2022-09-14T03:29:26;95315.75;;;12.53;60.02
55466;BME280;41329;41.594;23.810;2022-09-14T03:31:51;95312.59;;;12.55;60.34
55466;BME280;41329;41.594;23.810;2022-09-14T03:34:16;95309.38;;;12.49;60.28
55466;BME280;41329;41.594;23.810;2022-09-14T03:36:42;95303.41;;;12.48;60.14
55466;BME280;41329;41.594;23.810;2022-09-14T03:39:07;95316.09;;;12.48;59.88
55466;BME280;41329;41.594;23.810;2022-09-14T03:41:33;95320.47;;;12.49;59.55
55466;BME280;41329;41.594;23.810;2022-09-14T03:43:58;95328.41;;;12.48;59.71
55466;BME280;41329;41.594;23.810;2022-09-14T03:46:24;95331.53;;;12.46;59.43
55466;BME280;41329;41.594;23.810;2022-09-14T03:48:49;95326.34;;;12.41;59.34
55466;BME280;41329;41.594;23.810;2022-09-14T03:51:15;95333.47;;;12.38;59.81
55466;BME280;41329;41.594;23.810;2022-09-14T03:53:41;95323.50;;;12.34;60.33
55466;BME280;41329;41.594;23.810;2022-09-14T03:56:14;95328.66;;;12.32;60.76
55466;BME280;41329;41.594;23.810;2022-09-14T03:58:40;95332.63;;;12.31;61.11
55466;BME280;41329;41.594;23.810;2022-09-14T04:01:07;95331.81;;;12.30;61.11
55466;BME280;41329;41.594;23.810;2022-09-14T04:03:33;95339.69;;;12.28;60.80
55466;BME280;41329;41.594;23.810;2022-09-14T04:05:59;95343.66;;;12.27;60.87
55466;BME280;41329;41.594;23.810;2022-09-14T04:08:24;95343.28;;;12.29;61.50
55466;BME280;41329;41.594;23.810;2022-09-14T04:10:50;95344.47;;;12.28;61.26
55466;BME280;41329;41.594;23.810;2022-09-14T04:13:15;95340.50;;;12.29;61.09
55466;BME280;41329;41.594;23.810;2022-09-14T04:15:41;95347.59;;;12.23;60.96
55466;BME280;41329;41.594;23.810;2022-09-14T04:18:06;95359.81;;;12.15;60.48
55466;BME280;41329;41.594;23.810;2022-09-14T04:20:32;95346.31;;;12.13;60.37
55466;BME280;41329;41.594;23.810;2022-09-14T04:22:57;95354.97;;;12.08;60.96
55466;BME280;41329;41.594;23.810;2022-09-14T04:25:22;95357.31;;;12.06;61.45
55466;BME280;41329;41.594;23.810;2022-09-14T04:27:48;95353.38;;;12.07;61.64
55466;BME280;41329;41.594;23.810;2022-09-14T04:30:13;95355.72;;;12.05;61.84
55466;BME280;41329;41.594;23.810;2022-09-14T04:32:39;95356.13;;;12.07;62.17
55466;BME280;41329;41.594;23.810;2022-09-14T04:35:05;95366.78;;;12.02;62.39
55466;BME280;41329;41.594;23.810;2022-09-14T04:37:30;95369.75;;;11.83;62.30
55466;BME280;41329;41.594;23.810;2022-09-14T04:39:56;95364.31;;;11.93;62.54
55466;BME280;41329;41.594;23.810;2022-09-14T04:42:22;95359.19;;;11.95;61.94
55466;BME280;41329;41.594;23.810;2022-09-14T04:44:47;95362.00;;;11.99;62.27
55466;BME280;41329;41.594;23.810;2022-09-14T04:47:13;95364.34;;;11.97;62.38
55466;BME280;41329;41.594;23.810;2022-09-14T04:49:38;95370.72;;;12.01;62.79
55466;BME280;41329;41.594;23.810;2022-09-14T04:52:03;95368.00;;;12.04;62.70
55466;BME280;41329;41.594;23.810;2022-09-14T04:54:28;95370.44;;;12.09;62.29
55466;BME280;41329;41.594;23.810;2022-09-14T04:56:54;95383.84;;;12.04;62.60
55466;BME280;41329;41.594;23.810;2022-09-14T04:59:19;95382.34;;;12.10;62.13
55466;BME280;41329;41.594;23.810;2022-09-14T05:01:45;95378.78;;;12.13;62.03
55466;BME280;41329;41.594;23.810;2022-09-14T05:04:11;95380.81;;;12.16;62.43
55466;BME280;41329;41.594;23.810;2022-09-14T05:06:37;95377.66;;;12.17;62.66
55466;BME280;41329;41.594;23.810;2022-09-14T05:09:04;95372.41;;;12.09;62.78
55466;BME280;41329;41.594;23.810;2022-09-14T05:11:31;95363.69;;;12.07;63.21
55466;BME280;41329;41.594;23.810;2022-09-14T05:13:57;95362.47;;;12.04;63.59
55466;BME280;41329;41.594;23.810;2022-09-14T05:18:48;95355.22;;;11.93;64.60
55466;BME280;41329;41.594;23.810;2022-09-14T05:21:15;95348.00;;;11.85;65.23
55466;BME280;41329;41.594;23.810;2022-09-14T05:23:40;95347.53;;;11.79;65.80
55466;BME280;41329;41.594;23.810;2022-09-14T05:26:06;95349.69;;;11.96;65.61
55466;BME280;41329;41.594;23.810;2022-09-14T05:28:32;95355.28;;;12.00;65.53
55466;BME280;41329;41.594;23.810;2022-09-14T05:30:58;95356.19;;;12.11;65.60
55466;BME280;41329;41.594;23.810;2022-09-14T05:33:23;95352.31;;;12.19;65.61
55466;BME280;41329;41.594;23.810;2022-09-14T05:35:49;95364.28;;;12.30;65.64
55466;BME280;41329;41.594;23.810;2022-09-14T05:38:15;95369.94;;;12.40;65.67
55466;BME280;41329;41.594;23.810;2022-09-14T05:40:40;95371.16;;;12.43;65.60
55466;BME280;41329;41.594;23.810;2022-09-14T05:43:06;95376.84;;;12.57;65.32
55466;BME280;41329;41.594;23.810;2022-09-14T05:45:32;95371.66;;;12.52;65.20
55466;BME280;41329;41.594;23.810;2022-09-14T05:47:59;95374.47;;;12.59;65.19
55466;BME280;41329;41.594;23.810;2022-09-14T05:50:25;95372.22;;;12.72;65.06
55466;BME280;41329;41.594;23.810;2022-09-14T05:52:51;95363.53;;;12.80;65.00
55466;BME280;41329;41.594;23.810;2022-09-14T05:55:16;95365.19;;;12.85;64.76
55466;BME280;41329;41.594;23.810;2022-09-14T05:57:41;95370.84;;;12.99;64.45
55466;BME280;41329;41.594;23.810;2022-09-14T06:00:07;95371.31;;;13.08;64.34
55466;BME280;41329;41.594;23.810;2022-09-14T06:02:32;95380.09;;;13.13;64.64
55466;BME280;41329;41.594;23.810;2022-09-14T06:04:57;95378.41;;;12.98;64.85
55466;BME280;41329;41.594;23.810;2022-09-14T06:07:23;95381.50;;;12.93;65.23
55466;BME280;41329;41.594;23.810;2022-09-14T06:09:48;95379.19;;;12.99;64.87
55466;BME280;41329;41.594;23.810;2022-09-14T06:12:13;95366.03;;;12.96;65.38
55466;BME280;41329;41.594;23.810;2022-09-14T06:14:39;95366.97;;;13.10;65.32
55466;BME280;41329;41.594;23.810;2022-09-14T06:17:05;95372.56;;;13.14;64.94
55466;BME280;41329;41.594;23.810;2022-09-14T06:19:30;95372.06;;;12.98;64.97
55466;BME280;41329;41.594;23.810;2022-09-14T06:21:55;95376.47;;;13.02;64.98
55466;BME280;41329;41.594;23.810;2022-09-14T06:24:20;95378.72;;;12.93;65.02
55466;BME280;41329;41.594;23.810;2022-09-14T06:26:46;95376.50;;;13.09;65.26
55466;BME280;41329;41.594;23.810;2022-09-14T06:29:11;95374.16;;;13.18;65.21
55466;BME280;41329;41.594;23.810;2022-09-14T06:31:36;95372.59;;;13.17;65.11
55466;BME280;41329;41.594;23.810;2022-09-14T06:34:01;95376.63;;;13.30;65.54
55466;BME280;41329;41.594;23.810;2022-09-14T06:36:28;95381.47;;;13.44;64.77
55466;BME280;41329;41.594;23.810;2022-09-14T06:38:54;95368.44;;;13.55;64.44
55466;BME280;41329;41.594;23.810;2022-09-14T06:41:21;95369.66;;;13.61;64.45
55466;BME280;41329;41.594;23.810;2022-09-14T06:43:46;95369.28;;;13.66;64.00
55466;BME280;41329;41.594;23.810;2022-09-14T06:46:14;95371.38;;;13.86;64.91
55466;BME280;41329;41.594;23.810;2022-09-14T06:48:44;95376.59;;;14.09;63.58
55466;BME280;41329;41.594;23.810;2022-09-14T06:51:19;95376.25;;;14.21;62.97
55466;BME280;41329;41.594;23.810;2022-09-14T06:53:45;95374.34;;;14.42;62.73
55466;BME280;41329;41.594;23.810;2022-09-14T06:56:11;95376.34;;;14.63;62.09
55466;BME280;41329;41.594;23.810;2022-09-14T06:58:36;95368.41;;;14.68;60.53
55466;BME280;41329;41.594;23.810;2022-09-14T07:01:05;95369.22;;;14.79;59.97
55466;BME280;41329;41.594;23.810;2022-09-14T07:03:31;95364.81;;;14.75;60.33
55466;BME280;41329;41.594;23.810;2022-09-14T07:06:08;95361.63;;;14.87;60.74
55466;BME280;41329;41.594;23.810;2022-09-14T07:08:35;95367.97;;;15.15;60.06
55466;BME280;41329;41.594;23.810;2022-09-14T07:11:00;95364.38;;;15.32;58.19
55466;BME280;41329;41.594;23.810;2022-09-14T07:13:27;95363.94;;;15.55;58.77
55466;BME280;41329;41.594;23.810;2022-09-14T07:15:52;95359.09;;;15.73;56.99
55466;BME280;41329;41.594;23.810;2022-09-14T07:18:18;95363.88;;;15.83;56.61
55466;BME280;41329;41.594;23.810;2022-09-14T07:20:43;95361.03;;;16.00;54.48
55466;BME280;41329;41.594;23.810;2022-09-14T07:23:08;95362.97;;;16.07;55.22
55466;BME280;41329;41.594;23.810;2022-09-14T07:25:36;95359.69;;;16.22;54.51
55466;BME280;41329;41.594;23.810;2022-09-14T07:28:01;95370.34;;;16.48;54.79
55466;BME280;41329;41.594;23.810;2022-09-14T07:30:27;95362.59;;;16.73;54.89
55466;BME280;41329;41.594;23.810;2022-09-14T07:32:52;95361.22;;;16.95;52.50
55466;BME280;41329;41.594;23.810;2022-09-14T07:35:18;95357.66;;;16.91;51.75
55466;BME280;41329;41.594;23.810;2022-09-14T07:37:43;95360.44;;;16.91;51.63
55466;BME280;41329;41.594;23.810;2022-09-14T07:40:08;95359.97;;;17.03;53.17
55466;BME280;41329;41.594;23.810;2022-09-14T07:42:35;95351.16;;;17.05;51.05
55466;BME280;41329;41.594;23.810;2022-09-14T07:45:00;95341.81;;;17.22;51.11
55466;BME280;41329;41.594;23.810;2022-09-14T07:47:25;95338.03;;;17.46;51.61
55466;BME280;41329;41.594;23.810;2022-09-14T07:49:50;95323.47;;;17.61;49.46
55466;BME280;41329;41.594;23.810;2022-09-14T07:52:16;95337.69;;;17.77;50.20
55466;BME280;41329;41.594;23.810;2022-09-14T07:54:41;95333.41;;;18.00;48.44
55466;BME280;41329;41.594;23.810;2022-09-14T07:57:07;95336.91;;;18.07;49.59
55466;BME280;41329;41.594;23.810;2022-09-14T07:59:32;95337.09;;;18.23;49.21
55466;BME280;41329;41.594;23.810;2022-09-14T08:01:58;95334.75;;;18.48;48.78
55466;BME280;41329;41.594;23.810;2022-09-14T08:04:23;95336.56;;;18.62;48.10
55466;BME280;41329;41.594;23.810;2022-09-14T08:06:49;95335.88;;;18.81;47.31
55466;BME280;41329;41.594;23.810;2022-09-14T08:09:14;95333.84;;;19.08;48.83
55466;BME280;41329;41.594;23.810;2022-09-14T08:11:39;95332.50;;;19.39;48.28
55466;BME280;41329;41.594;23.810;2022-09-14T08:14:06;95335.78;;;19.57;44.90
55466;BME280;41329;41.594;23.810;2022-09-14T08:16:33;95343.00;;;19.58;44.14
55466;BME280;41329;41.594;23.810;2022-09-14T08:19:01;95344.88;;;19.64;44.29
55466;BME280;41329;41.594;23.810;2022-09-14T08:21:27;95352.22;;;19.78;46.82
55466;BME280;41329;41.594;23.810;2022-09-14T08:23:53;95337.63;;;20.06;45.12
55466;BME280;41329;41.594;23.810;2022-09-14T08:26:20;95343.25;;;20.06;43.63
55466;BME280;41329;41.594;23.810;2022-09-14T08:28:46;95333.78;;;20.19;44.16
55466;BME280;41329;41.594;23.810;2022-09-14T08:31:12;95337.06;;;20.34;43.67
55466;BME280;41329;41.594;23.810;2022-09-14T08:33:39;95328.13;;;20.39;44.24
55466;BME280;41329;41.594;23.810;2022-09-14T08:36:05;95323.41;;;20.52;42.37
55466;BME280;41329;41.594;23.810;2022-09-14T08:38:31;95317.28;;;20.57;40.59
55466;BME280;41329;41.594;23.810;2022-09-14T08:40:57;95314.31;;;20.64;41.89
55466;BME280;41329;41.594;23.810;2022-09-14T08:43:23;95317.16;;;20.80;41.11
55466;BME280;41329;41.594;23.810;2022-09-14T08:45:49;95310.78;;;20.95;41.12
55466;BME280;41329;41.594;23.810;2022-09-14T08:48:21;95312.88;;;21.23;42.45
55466;BME280;41329;41.594;23.810;2022-09-14T08:50:49;95303.44;;;21.46;41.22
55466;BME280;41329;41.594;23.810;2022-09-14T08:53:21;95304.94;;;21.34;39.46
55466;BME280;41329;41.594;23.810;2022-09-14T08:55:49;95296.31;;;21.41;39.55
55466;BME280;41329;41.594;23.810;2022-09-14T09:01:07;95300.00;;;21.70;39.59
55466;BME280;41329;41.594;23.810;2022-09-14T09:09:06;95291.81;;;21.60;37.69
55466;BME280;41329;41.594;23.810;2022-09-14T09:11:38;95285.50;;;21.84;39.47
55466;BME280;41329;41.594;23.810;2022-09-14T09:14:06;95293.50;;;21.86;36.18
55466;BME280;41329;41.594;23.810;2022-09-14T09:16:34;95297.75;;;22.06;36.90
55466;BME280;41329;41.594;23.810;2022-09-14T09:19:02;95294.44;;;22.36;40.03
55466;BME280;41329;41.594;23.810;2022-09-14T09:21:40;95291.22;;;22.50;37.23
55466;BME280;41329;41.594;23.810;2022-09-14T09:26:51;95288.97;;;22.58;36.58
55466;BME280;41329;41.594;23.810;2022-09-14T09:29:16;95281.28;;;22.46;35.65
55466;BME280;41329;41.594;23.810;2022-09-14T09:31:43;95281.75;;;22.69;36.29
55466;BME280;41329;41.594;23.810;2022-09-14T09:34:10;95277.25;;;22.84;33.82
55466;BME280;41329;41.594;23.810;2022-09-14T09:36:38;95284.81;;;22.75;36.55
55466;BME280;41329;41.594;23.810;2022-09-14T09:39:04;95291.13;;;23.04;37.99
55466;BME280;41329;41.594;23.810;2022-09-14T09:41:34;95287.38;;;23.32;38.01
55466;BME280;41329;41.594;23.810;2022-09-14T09:44:04;95283.25;;;23.58;34.62
55466;BME280;41329;41.594;23.810;2022-09-14T09:46:37;95291.47;;;23.65;33.73
55466;BME280;41329;41.594;23.810;2022-09-14T09:49:13;95281.66;;;23.23;33.51
55466;BME280;41329;41.594;23.810;2022-09-14T09:51:38;95291.38;;;23.56;36.63
55466;BME280;41329;41.594;23.810;2022-09-14T09:54:10;95292.69;;;23.64;33.16
55466;BME280;41329;41.594;23.810;2022-09-14T09:56:53;95280.91;;;23.78;31.81
55466;BME280;41329;41.594;23.810;2022-09-14T10:01:47;95275.44;;;24.18;34.29
55466;BME280;41329;41.594;23.810;2022-09-14T10:06:56;95272.59;;;24.61;33.09
55466;BME280;41329;41.594;23.810;2022-09-14T10:09:24;95271.59;;;24.85;34.11
55466;BME280;41329;41.594;23.810;2022-09-14T10:11:59;95260.69;;;25.14;31.41
55466;BME280;41329;41.594;23.810;2022-09-14T10:14:32;95258.88;;;25.29;31.14
55466;BME280;41329;41.594;23.810;2022-09-14T10:17:20;95263.31;;;25.39;29.84
55466;BME280;41329;41.594;23.810;2022-09-14T10:19:52;95256.84;;;25.39;31.33
55466;BME280;41329;41.594;23.810;2022-09-14T10:22:28;95254.50;;;25.37;31.00
55466;BME280;41329;41.594;23.810;2022-09-14T10:24:59;95251.81;;;25.52;30.50
55466;BME280;41329;41.594;23.810;2022-09-14T10:29:55;95246.78;;;25.56;31.98
55466;BME280;41329;41.594;23.810;2022-09-14T10:32:21;95252.78;;;25.67;30.66
55466;BME280;41329;41.594;23.810;2022-09-14T10:34:49;95244.44;;;25.54;30.46
55466;BME280;41329;41.594;23.810;2022-09-14T10:39:43;95236.28;;;25.83;30.77
55466;BME280;41329;41.594;23.810;2022-09-14T10:50:23;95229.50;;;26.17;30.59
55466;BME280;41329;41.594;23.810;2022-09-14T11:00:19;95214.50;;;26.85;28.90
55466;BME280;41329;41.594;23.810;2022-09-14T11:05:14;95213.88;;;26.12;29.71
55466;BME280;41329;41.594;23.810;2022-09-14T11:13:09;95202.66;;;26.86;29.54
55466;BME280;41329;41.594;23.810;2022-09-14T11:15:59;95199.81;;;26.86;29.56
55466;BME280;41329;41.594;23.810;2022-09-14T11:18:32;95192.19;;;27.01;29.92
55466;BME280;41329;41.594;23.810;2022-09-14T11:21:04;95195.03;;;27.01;29.62
55466;BME280;41329;41.594;23.810;2022-09-14T11:28:53;95186.97;;;27.32;27.46
55466;BME280;41329;41.594;23.810;2022-09-14T11:31:22;95179.09;;;27.27;28.43
55466;BME280;41329;41.594;23.810;2022-09-14T11:36:36;95169.56;;;27.77;28.34
55466;BME280;41329;41.594;23.810;2022-09-14T11:41:53;95168.66;;;27.71;25.14
55466;BME280;41329;41.594;23.810;2022-09-14T11:44:23;95166.56;;;27.57;25.73
55466;BME280;41329;41.594;23.810;2022-09-14T11:46:52;95170.81;;;27.62;26.23
55466;BME280;41329;41.594;23.810;2022-09-14T11:51:56;95154.81;;;27.88;26.59
55466;BME280;41329;41.594;23.810;2022-09-14T11:54:23;95154.72;;;28.12;26.55
55466;BME280;41329;41.594;23.810;2022-09-14T11:56:50;95153.53;;;28.33;27.24
55466;BME280;41329;41.594;23.810;2022-09-14T12:05:30;95134.97;;;28.08;24.61
55466;BME280;41329;41.594;23.810;2022-09-14T12:12:54;95104.91;;;28.80;23.45
55466;BME280;41329;41.594;23.810;2022-09-14T12:17:52;95113.66;;;28.76;23.12
55466;BME280;41329;41.594;23.810;2022-09-14T12:22:44;95111.13;;;28.98;24.62
55466;BME280;41329;41.594;23.810;2022-09-14T12:25:16;95110.66;;;29.00;22.24
55466;BME280;41329;41.594;23.810;2022-09-14T12:27:43;95126.50;;;28.86;23.33
55466;BME280;41329;41.594;23.810;2022-09-14T12:32:53;95117.72;;;29.04;22.65
55466;BME280;41329;41.594;23.810;2022-09-14T12:37:56;95125.59;;;28.95;21.40
55466;BME280;41329;41.594;23.810;2022-09-14T12:40:22;95124.72;;;28.89;21.83
55466;BME280;41329;41.594;23.810;2022-09-14T12:42:55;95133.19;;;28.69;22.09
55466;BME280;41329;41.594;23.810;2022-09-14T12:48:06;95133.16;;;28.83;22.12
55466;BME280;41329;41.594;23.810;2022-09-14T12:50:32;95130.97;;;28.93;22.32
55466;BME280;41329;41.594;23.810;2022-09-14T13:01:28;95126.16;;;29.73;22.38
55466;BME280;41329;41.594;23.810;2022-09-14T13:03:49;95124.38;;;30.01;22.26
55466;BME280;41329;41.594;23.810;2022-09-14T13:06:14;95125.97;;;30.28;21.74
55466;BME280;41329;41.594;23.810;2022-09-14T13:08:45;95121.03;;;30.28;21.19
55466;BME280;41329;41.594;23.810;2022-09-14T13:11:17;95129.81;;;29.99;21.33
55466;BME280;41329;41.594;23.810;2022-09-14T13:13:42;95130.53;;;30.14;23.21
55466;BME280;41329;41.594;23.810;2022-09-14T13:16:12;95121.06;;;30.08;23.40
55466;BME280;41329;41.594;23.810;2022-09-14T13:18:40;95136.81;;;30.24;23.26
55466;BME280;41329;41.594;23.810;2022-09-14T13:21:16;95133.47;;;30.25;23.99
55466;BME280;41329;41.594;23.810;2022-09-14T13:23:42;95139.50;;;30.07;23.94
55466;BME280;41329;41.594;23.810;2022-09-14T13:26:11;95137.91;;;29.81;24.72
55466;BME280;41329;41.594;23.810;2022-09-14T13:28:40;95139.69;;;29.78;24.80
55466;BME280;41329;41.594;23.810;2022-09-14T13:31:10;95137.22;;;29.91;25.36
55466;BME280;41329;41.594;23.810;2022-09-14T13:33:36;95141.47;;;30.01;24.36
55466;BME280;41329;41.594;23.810;2022-09-14T13:36:01;95142.09;;;30.11;25.36
55466;BME280;41329;41.594;23.810;2022-09-14T13:38:32;95144.88;;;30.25;25.37
55466;BME280;41329;41.594;23.810;2022-09-14T13:41:31;95141.09;;;30.34;24.91
55466;BME280;41329;41.594;23.810;2022-09-14T13:43:52;95144.19;;;30.61;24.93
55466;BME280;41329;41.594;23.810;2022-09-14T13:46:19;95139.03;;;30.65;24.65
55466;BME280;41329;41.594;23.810;2022-09-14T13:48:44;95135.59;;;30.92;24.69
55466;BME280;41329;41.594;23.810;2022-09-14T13:51:11;95133.00;;;30.89;23.62
55466;BME280;41329;41.594;23.810;2022-09-14T13:53:38;95135.66;;;30.98;24.16
55466;BME280;41329;41.594;23.810;2022-09-14T13:58:46;95133.03;;;30.94;24.14
55466;BME280;41329;41.594;23.810;2022-09-14T14:01:12;95137.13;;;30.57;24.87
55466;BME280;41329;41.594;23.810;2022-09-14T14:03:45;95134.66;;;30.70;24.93
55466;BME280;41329;41.594;23.810;2022-09-14T14:08:42;95138.47;;;30.92;24.01
55466;BME280;41329;41.594;23.810;2022-09-14T14:11:07;95145.81;;;31.04;24.04
55466;BME280;41329;41.594;23.810;2022-09-14T14:13:34;95147.63;;;31.02;23.58
55466;BME280;41329;41.594;23.810;2022-09-14T14:16:16;95143.47;;;31.03;24.45
55466;BME280;41329;41.594;23.810;2022-09-14T14:18:47;95145.41;;;31.17;25.68
55466;BME280;41329;41.594;23.810;2022-09-14T14:21:34;95137.34;;;31.21;25.63
55466;BME280;41329;41.594;23.810;2022-09-14T14:26:47;95136.94;;;31.33;24.75
55466;BME280;41329;41.594;23.810;2022-09-14T14:29:13;95130.13;;;31.25;25.38
55466;BME280;41329;41.594;23.810;2022-09-14T14:31:42;95140.69;;;31.14;25.98
55466;BME280;41329;41.594;23.810;2022-09-14T14:34:16;95134.22;;;31.19;26.94
55466;BME280;41329;41.594;23.810;2022-09-14T14:36:42;95144.06;;;31.12;25.92
55466;BME280;41329;41.594;23.810;2022-09-14T14:39:08;95128.16;;;31.06;26.42
55466;BME280;41329;41.594;23.810;2022-09-14T14:41:34;95124.41;;;30.89;25.43
55466;BME280;41329;41.594;23.810;2022-09-14T14:43:59;95131.09;;;30.80;26.28
55466;BME280;41329;41.594;23.810;2022-09-14T14:46:25;95124.72;;;30.96;26.71
55466;BME280;41329;41.594;23.810;2022-09-14T14:48:50;95124.78;;;31.02;25.62
55466;BME280;41329;41.594;23.810;2022-09-14T14:51:16;95119.97;;;30.82;25.89
55466;BME280;41329;41.594;23.810;2022-09-14T14:53:41;95119.47;;;30.84;25.83
55466;BME280;41329;41.594;23.810;2022-09-14T14:56:08;95124.34;;;30.78;26.38